Time;durP1;ratioP1;P1;durP2;ratioP2;P2;SDS_P1;SDS_P2;PMS_P1;PMS_P2;Temp;Humidity;BMP_temperature;BMP_pressure;BME280_temperature;BME280_humidity;BME280_pressure;Samples;Min_cycle;Max_cycle;Signal;HPM_P1;HPM_P2
2021/08/26 00:07:50;;;;;;;13.50;5.50;;;14.80;99.90;;;;;;5091632;28;20645;-49
2021/08/26 00:10:17;;;;;;;13.05;4.05;;;14.80;99.90;;;;;;5091470;28;20056;-47
2021/08/26 00:12:42;;;;;;;12.98;4.97;;;14.80;99.90;;;;;;5091288;28;20020;-48
2021/08/26 00:15:09;;;;;;;13.63;4.68;;;14.80;99.90;;;;;;5091495;28;20522;-48
2021/08/26 00:17:34;;;;;;;10.32;4.30;;;14.80;99.90;;;;;;5090821;28;20028;-48
2021/08/26 00:20:00;;;;;;;16.55;5.72;;;14.80;99.90;;;;;;5090796;28;20031;-47
2021/08/26 00:22:26;;;;;;;18.75;4.82;;;14.80;99.90;;;;;;5089746;28;20020;-47
2021/08/26 00:24:51;;;;;;;12.50;4.85;;;14.80;99.90;;;;;;5091336;28;20031;-48
2021/08/26 00:27:17;;;;;;;17.85;4.97;;;14.80;99.90;;;;;;5084677;28;20511;-48
2021/08/26 00:29:42;;;;;;;19.00;4.93;;;14.80;99.90;;;;;;5081340;28;20020;-46
2021/08/26 00:32:08;;;;;;;16.00;5.38;;;14.80;99.90;;;;;;5080072;28;20402;-47
2021/08/26 00:34:33;;;;;;;15.02;6.20;;;14.80;99.90;;;;;;5086132;28;20078;-47
2021/08/26 00:36:59;;;;;;;16.50;5.57;;;14.70;99.90;;;;;;5084039;28;20112;-47
2021/08/26 00:39:24;;;;;;;15.38;5.30;;;14.70;99.90;;;;;;5084623;28;20138;-48
2021/08/26 00:41:50;;;;;;;18.27;5.82;;;14.70;99.90;;;;;;5090960;28;20144;-49
2021/08/26 00:44:17;;;;;;;18.88;5.63;;;14.70;99.90;;;;;;5090704;28;20363;-49
2021/08/26 00:46:46;;;;;;;21.80;6.22;;;14.70;99.90;;;;;;5090105;28;20024;-47
2021/08/26 00:49:16;;;;;;;21.20;5.20;;;14.70;99.90;;;;;;5090584;28;20058;-47
2021/08/26 00:51:42;;;;;;;22.58;6.90;;;14.70;99.90;;;;;;5090325;28;20028;-47
2021/08/26 00:54:08;;;;;;;16.63;5.07;;;14.60;99.90;;;;;;5089340;28;20035;-48
2021/08/26 00:56:34;;;;;;;15.32;5.63;;;14.60;99.90;;;;;;5090082;28;20078;-47
2021/08/26 00:59:02;;;;;;;20.45;5.95;;;14.60;99.90;;;;;;5073501;28;20425;-47
2021/08/26 01:01:46;;;;;;;18.50;5.53;;;14.60;99.90;;;;;;5082156;28;20475;-47
2021/08/26 01:04:33;;;;;;;17.38;5.20;;;14.50;99.90;;;;;;5090695;28;20024;-48
2021/08/26 01:07:22;;;;;;;12.60;5.00;;;14.60;99.90;;;;;;5076874;28;20017;-47
2021/08/26 01:09:53;;;;;;;19.90;5.40;;;14.60;99.90;;;;;;5081515;28;20027;-47
2021/08/26 01:12:23;;;;;;;11.18;6.03;;;14.60;99.90;;;;;;5090212;28;20073;-48
2021/08/26 01:14:50;;;;;;;20.77;6.03;;;14.60;99.90;;;;;;5090087;28;20032;-49
2021/08/26 01:17:20;;;;;;;24.27;5.93;;;14.60;99.90;;;;;;5089659;28;20039;-49
2021/08/26 01:19:46;;;;;;;20.70;5.88;;;14.60;99.90;;;;;;5080186;28;20506;-48
2021/08/26 01:22:12;;;;;;;24.63;5.35;;;14.50;99.90;;;;;;5085663;28;20512;-47
2021/08/26 01:24:38;;;;;;;17.77;5.32;;;14.50;99.90;;;;;;5070034;28;20021;-48
2021/08/26 01:27:05;;;;;;;20.77;6.40;;;14.50;99.90;;;;;;5069052;28;20143;-47
2021/08/26 01:29:31;;;;;;;19.15;6.47;;;14.50;99.90;;;;;;5069647;28;20064;-47
2021/08/26 01:31:56;;;;;;;17.73;5.75;;;14.50;99.90;;;;;;5069652;28;20129;-48
2021/08/26 01:34:22;;;;;;;22.83;6.57;;;14.50;99.90;;;;;;5069545;28;20135;-49
2021/08/26 01:36:48;;;;;;;26.60;6.07;;;14.50;99.90;;;;;;5075656;28;20034;-48
2021/08/26 01:39:15;;;;;;;17.58;5.85;;;14.50;99.90;;;;;;5082345;28;20489;-48
2021/08/26 01:41:55;;;;;;;22.25;5.82;;;14.50;99.90;;;;;;5089707;28;20027;-47
2021/08/26 01:44:29;;;;;;;26.67;6.90;;;14.50;99.90;;;;;;5089684;28;20020;-47
2021/08/26 01:47:20;;;;;;;18.60;5.53;;;14.50;99.90;;;;;;5088852;28;20146;-47
2021/08/26 01:49:51;;;;;;;18.30;5.60;;;14.50;99.90;;;;;;5048723;28;20121;-47
2021/08/26 01:52:18;;;;;;;20.70;5.75;;;14.50;99.90;;;;;;5065173;28;20040;-47
2021/08/26 01:54:56;;;;;;;22.45;6.38;;;14.50;99.90;;;;;;5086253;28;20245;-47
2021/08/26 01:57:23;;;;;;;26.17;5.25;;;14.50;99.90;;;;;;5088738;28;20028;-47
2021/08/26 01:59:49;;;;;;;16.45;6.57;;;14.50;99.90;;;;;;5077290;28;20131;-47
2021/08/26 02:02:16;;;;;;;21.08;6.63;;;14.50;99.90;;;;;;5080778;28;20564;-48
2021/08/26 02:04:41;;;;;;;20.73;6.20;;;14.50;99.90;;;;;;5088700;28;20024;-48
2021/08/26 02:07:07;;;;;;;20.90;6.22;;;14.50;99.90;;;;;;5088250;28;20424;-49
2021/08/26 02:09:32;;;;;;;25.95;6.25;;;14.50;99.90;;;;;;5087807;28;20058;-47
2021/08/26 02:11:58;;;;;;;23.33;6.20;;;14.50;99.90;;;;;;5087828;28;20024;-49
2021/08/26 02:14:24;;;;;;;30.88;6.57;;;14.50;99.90;;;;;;5089092;28;20236;-47
2021/08/26 02:16:49;;;;;;;22.52;6.70;;;14.40;99.90;;;;;;5083162;28;20051;-46
2021/08/26 02:19:15;;;;;;;26.42;6.57;;;14.40;99.90;;;;;;5080279;28;20389;-47
2021/08/26 02:21:40;;;;;;;27.70;7.07;;;14.40;99.90;;;;;;5089181;28;20103;-48
2021/08/26 02:24:06;;;;;;;22.42;6.28;;;14.40;99.90;;;;;;5088998;28;20107;-49
2021/08/26 02:26:32;;;;;;;27.77;7.03;;;14.40;99.90;;;;;;5086924;28;20059;-48
2021/08/26 02:28:57;;;;;;;22.23;6.00;;;14.40;99.90;;;;;;5087502;28;20031;-50
2021/08/26 02:31:23;;;;;;;32.33;6.55;;;14.40;99.90;;;;;;5088745;28;20397;-48
2021/08/26 02:33:48;;;;;;;36.92;6.72;;;14.40;99.90;;;;;;5088794;28;20060;-48
2021/08/26 02:36:14;;;;;;;26.02;5.63;;;14.30;99.90;;;;;;5079746;28;20055;-47
2021/08/26 02:38:40;;;;;;;26.33;7.28;;;14.30;99.90;;;;;;5073032;28;20035;-47
2021/08/26 02:41:06;;;;;;;26.70;7.13;;;14.40;99.90;;;;;;5088219;28;20430;-47
2021/08/26 02:43:31;;;;;;;30.40;7.53;;;14.30;99.90;;;;;;5088869;28;20020;-47
2021/08/26 02:45:57;;;;;;;29.38;7.22;;;14.30;99.90;;;;;;5077397;28;20021;-47
2021/08/26 02:48:22;;;;;;;25.90;7.65;;;14.30;99.90;;;;;;5082312;28;20025;-47
2021/08/26 02:50:48;;;;;;;30.50;7.22;;;14.30;99.90;;;;;;5068310;28;20039;-47
2021/08/26 02:53:13;;;;;;;34.47;7.75;;;14.30;99.90;;;;;;5068085;28;20095;-47
2021/08/26 02:55:39;;;;;;;24.85;6.53;;;14.30;99.90;;;;;;5068161;28;20037;-48
2021/08/26 02:58:05;;;;;;;19.23;5.15;;;14.30;99.90;;;;;;5066416;28;20020;-48
2021/08/26 03:00:31;;;;;;;21.63;6.85;;;14.30;99.90;;;;;;5059365;28;20029;-47
2021/08/26 03:02:56;;;;;;;28.15;6.85;;;14.30;99.90;;;;;;5058625;28;20031;-47
2021/08/26 03:05:21;;;;;;;34.90;6.25;;;14.30;99.90;;;;;;5056319;28;20029;-48
2021/08/26 03:07:47;;;;;;;34.13;7.30;;;14.30;99.90;;;;;;5056368;28;20020;-47
2021/08/26 03:10:12;;;;;;;37.78;6.57;;;14.30;99.90;;;;;;5057540;28;20112;-47
2021/08/26 03:12:38;;;;;;;22.85;6.30;;;14.30;99.90;;;;;;5057117;28;20091;-47
2021/08/26 03:15:04;;;;;;;19.63;6.95;;;14.30;99.90;;;;;;5057669;28;20021;-48
2021/08/26 03:17:29;;;;;;;27.17;7.13;;;14.30;99.90;;;;;;5062449;28;20103;-47
2021/08/26 03:19:55;;;;;;;27.15;6.22;;;14.30;99.90;;;;;;5063013;28;20164;-47
2021/08/26 03:22:21;;;;;;;21.50;7.15;;;14.30;99.90;;;;;;5064089;28;20029;-48
2021/08/26 03:24:46;;;;;;;19.17;6.57;;;14.20;99.90;;;;;;5063672;28;20243;-47
2021/08/26 03:27:12;;;;;;;28.35;6.88;;;14.30;99.90;;;;;;5061902;28;20024;-49
2021/08/26 03:29:37;;;;;;;32.88;7.28;;;14.30;99.90;;;;;;5060710;28;20311;-47
2021/08/26 03:32:03;;;;;;;25.73;6.57;;;14.30;99.90;;;;;;5061584;28;20025;-47
2021/08/26 03:34:28;;;;;;;28.67;6.88;;;14.30;99.90;;;;;;5061060;28;20029;-47
2021/08/26 03:36:54;;;;;;;26.90;6.88;;;14.30;99.90;;;;;;5060038;28;20025;-47
2021/08/26 03:39:19;;;;;;;25.70;6.15;;;14.30;99.90;;;;;;5066571;28;20406;-47
2021/08/26 03:41:45;;;;;;;21.00;6.57;;;14.30;99.90;;;;;;5054317;28;20078;-47
2021/08/26 03:44:10;;;;;;;25.10;6.72;;;14.30;99.90;;;;;;5052049;28;20028;-47
2021/08/26 03:46:36;;;;;;;30.27;6.45;;;14.30;99.90;;;;;;5065433;28;20060;-47
2021/08/26 03:49:01;;;;;;;25.75;5.97;;;14.30;99.90;;;;;;5083249;28;20032;-47
2021/08/26 03:51:27;;;;;;;22.27;6.28;;;14.30;99.90;;;;;;5091514;28;20027;-47
2021/08/26 03:53:52;;;;;;;22.67;6.25;;;14.30;99.90;;;;;;5091859;28;20042;-47
2021/08/26 03:56:18;;;;;;;23.83;7.03;;;14.30;99.90;;;;;;5090929;28;20039;-49
2021/08/26 03:58:43;;;;;;;32.42;7.10;;;14.30;99.90;;;;;;5091706;28;20054;-49
2021/08/26 04:01:09;;;;;;;28.17;8.00;;;14.30;99.90;;;;;;5088216;28;20407;-46
2021/08/26 04:03:34;;;;;;;29.50;7.82;;;14.30;99.90;;;;;;5070494;28;20554;-46
2021/08/26 04:06:00;;;;;;;29.58;7.65;;;14.20;99.90;;;;;;5072080;28;20410;-46
2021/08/26 04:08:26;;;;;;;28.83;7.05;;;14.30;99.90;;;;;;5070462;28;20551;-46
2021/08/26 04:10:52;;;;;;;26.48;7.13;;;14.20;99.90;;;;;;5071408;28;20063;-46
2021/08/26 04:13:17;;;;;;;23.13;7.40;;;14.30;99.90;;;;;;5073085;28;20052;-47
2021/08/26 04:15:43;;;;;;;27.98;8.13;;;14.30;99.90;;;;;;5087818;28;20028;-46
2021/08/26 04:18:08;;;;;;;28.90;6.82;;;14.20;99.90;;;;;;5090556;28;20107;-46
2021/08/26 04:20:34;;;;;;;31.98;7.45;;;14.30;99.90;;;;;;5089288;28;20038;-46
2021/08/26 04:23:02;;;;;;;27.48;7.38;;;14.30;99.90;;;;;;5080374;28;20531;-47
2021/08/26 04:25:28;;;;;;;29.33;7.50;;;14.20;99.90;;;;;;5091359;28;20377;-47
2021/08/26 04:27:53;;;;;;;28.40;7.70;;;14.30;99.90;;;;;;5090784;28;20024;-48
2021/08/26 04:30:19;;;;;;;25.40;6.40;;;14.30;99.90;;;;;;5091690;28;20099;-47
2021/08/26 04:32:44;;;;;;;30.45;6.85;;;14.20;99.90;;;;;;5091159;28;20077;-47
2021/08/26 04:35:10;;;;;;;26.13;7.78;;;14.30;99.90;;;;;;5091074;28;20036;-48
2021/08/26 04:37:35;;;;;;;26.10;7.07;;;14.20;99.90;;;;;;5079372;28;20028;-49
2021/08/26 04:40:01;;;;;;;33.33;8.00;;;14.30;99.90;;;;;;5082508;28;20067;-47
2021/08/26 04:42:26;;;;;;;21.58;6.57;;;14.20;99.90;;;;;;5090869;28;20516;-47
2021/08/26 04:44:52;;;;;;;27.13;6.97;;;14.20;99.90;;;;;;5086071;28;20070;-46
2021/08/26 04:47:17;;;;;;;30.02;7.03;;;14.20;99.90;;;;;;5064727;28;20158;-46
2021/08/26 04:49:43;;;;;;;29.92;7.50;;;14.20;99.90;;;;;;5058214;28;20036;-47
2021/08/26 04:52:08;;;;;;;31.13;7.63;;;14.30;99.90;;;;;;5051674;28;20498;-46
2021/08/26 04:54:33;;;;;;;29.77;6.88;;;14.30;99.90;;;;;;5051193;28;20029;-46
2021/08/26 04:56:59;;;;;;;27.50;6.97;;;14.20;99.90;;;;;;5060069;28;20159;-46
2021/08/26 04:59:25;;;;;;;26.30;7.78;;;14.20;99.90;;;;;;5063198;28;20029;-47
2021/08/26 05:01:50;;;;;;;29.42;9.00;;;14.20;99.90;;;;;;5059221;28;20021;-47
2021/08/26 05:04:23;;;;;;;25.23;7.65;;;14.30;99.90;;;;;;5061609;28;20500;-47
2021/08/26 05:06:48;;;;;;;38.10;7.55;;;14.30;99.90;;;;;;5062718;28;20024;-47
2021/08/26 05:09:14;;;;;;;21.50;7.72;;;14.30;99.90;;;;;;5071712;28;20523;-46
2021/08/26 05:11:39;;;;;;;28.50;7.75;;;14.30;99.90;;;;;;5061861;28;20028;-47
2021/08/26 05:14:05;;;;;;;25.95;7.22;;;14.40;99.90;;;;;;5060464;28;20040;-49
2021/08/26 05:16:30;;;;;;;27.48;7.75;;;14.40;99.90;;;;;;5057430;28;20060;-46
2021/08/26 05:18:55;;;;;;;36.40;7.05;;;14.40;99.90;;;;;;5059410;28;20092;-46
2021/08/26 05:21:21;;;;;;;25.77;7.38;;;14.40;99.90;;;;;;5056971;28;20036;-47
2021/08/26 05:23:46;;;;;;;29.80;9.02;;;14.50;99.90;;;;;;5062556;28;20283;-47
2021/08/26 05:26:13;;;;;;;20.95;7.43;;;14.50;99.90;;;;;;5061879;28;20476;-46
2021/08/26 05:28:38;;;;;;;31.48;8.90;;;14.50;99.90;;;;;;5068130;28;20016;-46
2021/08/26 05:31:04;;;;;;;23.80;7.47;;;14.50;99.90;;;;;;5070530;28;20028;-47
2021/08/26 05:33:29;;;;;;;23.98;7.93;;;14.50;99.90;;;;;;5071557;28;20469;-47
2021/08/26 05:35:54;;;;;;;23.95;6.40;;;14.50;99.90;;;;;;5071387;28;20037;-47
2021/08/26 05:38:20;;;;;;;32.72;7.45;;;14.50;99.90;;;;;;5069876;28;20029;-46
2021/08/26 05:40:46;;;;;;;28.15;6.88;;;14.60;99.90;;;;;;5084184;28;20031;-47
2021/08/26 05:43:11;;;;;;;25.67;7.45;;;14.60;99.90;;;;;;5087797;28;20028;-46
2021/08/26 05:45:37;;;;;;;25.42;6.50;;;14.60;99.90;;;;;;5087495;28;20024;-46
2021/08/26 05:48:02;;;;;;;27.25;7.57;;;14.70;99.90;;;;;;5088507;28;20035;-46
2021/08/26 05:50:28;;;;;;;31.15;8.13;;;14.70;99.90;;;;;;5089030;28;20206;-46
2021/08/26 05:52:54;;;;;;;28.20;7.32;;;14.70;99.90;;;;;;5078702;28;20029;-45
2021/08/26 05:55:19;;;;;;;24.73;7.55;;;14.80;99.90;;;;;;5079988;28;20052;-45
2021/08/26 05:57:46;;;;;;;27.85;7.65;;;14.80;99.90;;;;;;5076955;28;20051;-45
2021/08/26 06:00:12;;;;;;;27.42;6.95;;;14.90;99.90;;;;;;5059317;28;20032;-46
2021/08/26 06:02:38;;;;;;;30.48;7.68;;;15.00;99.90;;;;;;5072159;28;20021;-46
2021/08/26 06:05:05;;;;;;;30.20;7.32;;;15.00;99.90;;;;;;5064645;28;20262;-46
2021/08/26 06:07:30;;;;;;;25.95;8.63;;;15.00;99.90;;;;;;5060918;28;20138;-45
2021/08/26 06:09:55;;;;;;;28.15;8.18;;;15.00;99.90;;;;;;5062607;28;20058;-46
2021/08/26 06:12:21;;;;;;;27.50;6.82;;;15.00;99.90;;;;;;5064577;28;20032;-45
2021/08/26 06:14:46;;;;;;;23.30;7.38;;;15.00;99.90;;;;;;5060311;28;20609;-46
2021/08/26 06:17:12;;;;;;;28.88;7.60;;;15.10;99.90;;;;;;5059000;28;20017;-46
2021/08/26 06:19:37;;;;;;;32.92;7.85;;;15.20;99.90;;;;;;5062793;28;20017;-46
2021/08/26 06:22:03;;;;;;;29.35;7.03;;;15.30;99.90;;;;;;5057259;28;20467;-49
2021/08/26 06:24:28;;;;;;;29.73;6.65;;;15.30;99.90;;;;;;5058988;28;20303;-45
2021/08/26 06:26:58;;;;;;;21.63;6.22;;;15.40;99.90;;;;;;5062161;28;20068;-46
2021/08/26 06:29:24;;;;;;;30.45;8.18;;;15.40;99.90;;;;;;5074130;28;20397;-46
2021/08/26 06:31:50;;;;;;;32.55;7.47;;;15.50;99.90;;;;;;5060497;28;20020;-49
2021/08/26 06:34:15;;;;;;;28.13;6.85;;;15.60;99.90;;;;;;5056255;28;20054;-47
2021/08/26 06:36:41;;;;;;;22.55;7.18;;;15.70;99.90;;;;;;5074845;28;20024;-46
2021/08/26 06:39:06;;;;;;;19.33;7.00;;;15.90;99.90;;;;;;5054913;28;20033;-47
2021/08/26 06:41:32;;;;;;;27.05;7.10;;;15.90;99.90;;;;;;5063316;28;20445;-47
2021/08/26 06:43:57;;;;;;;21.90;7.07;;;16.00;99.90;;;;;;5073475;28;20529;-47
2021/08/26 06:46:23;;;;;;;22.75;6.32;;;16.10;99.90;;;;;;5062845;28;20156;-47
2021/08/26 06:48:50;;;;;;;25.13;7.13;;;16.00;99.90;;;;;;5065867;28;20028;-46
2021/08/26 06:51:15;;;;;;;24.05;6.97;;;16.10;99.90;;;;;;5067327;28;20115;-46
2021/08/26 06:53:41;;;;;;;22.85;6.97;;;16.00;99.90;;;;;;5067049;28;20537;-46
2021/08/26 06:56:06;;;;;;;27.33;7.35;;;16.00;99.90;;;;;;5070580;28;20564;-46
2021/08/26 06:58:32;;;;;;;25.60;6.85;;;16.00;99.90;;;;;;5078638;28;20067;-48
2021/08/26 07:00:58;;;;;;;29.65;6.95;;;16.00;99.90;;;;;;5071776;28;20128;-46
2021/08/26 07:03:23;;;;;;;33.15;7.60;;;16.10;99.90;;;;;;5066611;28;20028;-46
2021/08/26 07:05:49;;;;;;;22.23;6.75;;;16.00;99.90;;;;;;5083172;28;20267;-46
2021/08/26 07:08:14;;;;;;;18.70;6.45;;;16.00;99.90;;;;;;5087012;28;20039;-49
2021/08/26 07:10:40;;;;;;;27.38;7.25;;;16.00;99.90;;;;;;5067730;28;20041;-46
2021/08/26 07:13:06;;;;;;;21.13;6.68;;;16.00;99.90;;;;;;5065950;28;20028;-46
2021/08/26 07:15:32;;;;;;;33.85;6.78;;;16.00;99.90;;;;;;5067110;28;20196;-46
2021/08/26 07:17:58;;;;;;;27.52;7.55;;;16.00;99.90;;;;;;5065217;28;20036;-46
2021/08/26 07:20:23;;;;;;;18.10;5.93;;;16.00;99.90;;;;;;5066972;28;20033;-47
2021/08/26 07:22:49;;;;;;;39.22;7.65;;;16.00;99.90;;;;;;5074165;28;20275;-46
2021/08/26 07:25:15;;;;;;;18.92;6.28;;;16.00;99.90;;;;;;5087737;28;20028;-46
2021/08/26 07:27:41;;;;;;;27.23;6.80;;;16.00;99.90;;;;;;5086802;28;20032;-47
2021/08/26 07:30:07;;;;;;;20.33;6.32;;;16.00;99.90;;;;;;5087457;28;20548;-48
2021/08/26 07:32:32;;;;;;;30.58;6.90;;;16.10;99.90;;;;;;5085722;28;20020;-48
2021/08/26 07:34:58;;;;;;;25.42;6.15;;;16.20;99.90;;;;;;5087177;28;20076;-46
2021/08/26 07:37:24;;;;;;;16.65;6.32;;;16.30;99.90;;;;;;5067074;28;20578;-47
2021/08/26 07:39:50;;;;;;;19.48;6.15;;;16.30;99.90;;;;;;5059823;28;20126;-46
2021/08/26 07:42:15;;;;;;;23.10;6.43;;;16.50;99.90;;;;;;5056297;28;20498;-48
2021/08/26 07:44:41;;;;;;;21.10;6.22;;;16.70;99.90;;;;;;5057878;28;20536;-48
2021/08/26 07:47:06;;;;;;;22.55;7.05;;;16.80;99.90;;;;;;5058204;28;20086;-49
2021/08/26 07:49:32;;;;;;;17.88;6.63;;;16.70;99.90;;;;;;5057157;28;20021;-47
2021/08/26 07:51:57;;;;;;;26.88;6.35;;;16.70;99.90;;;;;;5056091;28;20085;-47
2021/08/26 07:54:23;;;;;;;32.92;7.35;;;16.60;99.90;;;;;;5070420;28;20016;-49
2021/08/26 07:56:48;;;;;;;21.23;5.93;;;16.60;99.90;;;;;;5062832;28;20189;-49
2021/08/26 07:59:14;;;;;;;22.98;7.43;;;16.60;99.90;;;;;;5080568;28;20025;-48
2021/08/26 08:01:39;;;;;;;19.30;6.05;;;16.70;99.90;;;;;;5051230;28;20044;-48
2021/08/26 08:04:05;;;;;;;19.02;5.32;;;16.90;99.90;;;;;;5064585;28;20012;-47
2021/08/26 08:06:30;;;;;;;17.30;5.82;;;16.90;99.90;;;;;;5062509;28;20093;-47
2021/08/26 08:08:56;;;;;;;26.27;7.25;;;17.00;99.90;;;;;;5055032;28;20025;-47
2021/08/26 08:11:21;;;;;;;19.27;7.22;;;17.00;99.90;;;;;;5052658;28;20068;-48
2021/08/26 08:13:47;;;;;;;18.33;5.95;;;17.00;99.90;;;;;;5056595;28;20091;-47
2021/08/26 08:16:12;;;;;;;22.30;6.75;;;17.10;99.90;;;;;;5062307;28;20033;-48
2021/08/26 08:18:38;;;;;;;15.90;6.53;;;17.20;99.90;;;;;;5065240;28;20025;-47
2021/08/26 08:21:03;;;;;;;38.05;7.72;;;17.10;99.90;;;;;;5065392;28;20481;-46
2021/08/26 08:23:30;;;;;;;23.77;7.10;;;17.10;99.90;;;;;;5055856;28;20108;-47
2021/08/26 08:25:56;;;;;;;18.90;6.13;;;17.10;99.90;;;;;;5049579;28;20029;-47
2021/08/26 08:28:21;;;;;;;15.25;5.97;;;17.20;99.90;;;;;;5063612;28;20445;-47
2021/08/26 08:30:47;;;;;;;24.10;7.10;;;17.30;99.90;;;;;;5065864;28;20078;-47
2021/08/26 08:33:13;;;;;;;16.27;5.80;;;17.50;99.90;;;;;;5057823;28;20113;-46
2021/08/26 08:35:39;;;;;;;27.20;7.68;;;17.70;99.90;;;;;;5059324;28;20187;-50
2021/08/26 08:38:06;;;;;;;17.77;5.82;;;17.80;99.90;;;;;;5060250;28;20077;-47
2021/08/26 08:40:31;;;;;;;20.20;6.63;;;17.60;99.90;;;;;;5059910;28;20145;-46
2021/08/26 08:42:58;;;;;;;27.25;6.70;;;17.50;99.90;;;;;;5057261;28;20481;-47
2021/08/26 08:45:24;;;;;;;17.45;7.30;;;17.40;99.90;;;;;;5060393;28;20044;-47
2021/08/26 08:47:51;;;;;;;19.63;6.47;;;17.30;99.90;;;;;;5055802;28;20308;-47
2021/08/26 08:50:24;;;;;;;16.70;6.35;;;17.10;99.90;;;;;;5074264;28;20059;-47
2021/08/26 08:52:50;;;;;;;24.75;6.95;;;17.00;99.90;;;;;;5068434;28;20118;-47
2021/08/26 08:55:17;;;;;;;21.13;6.25;;;16.90;99.90;;;;;;5068420;28;20031;-47
2021/08/26 08:57:43;;;;;;;22.25;7.13;;;16.80;99.90;;;;;;5060341;28;20033;-47
2021/08/26 09:00:13;;;;;;;26.67;6.75;;;16.80;99.90;;;;;;5075802;28;20560;-46
2021/08/26 09:02:39;;;;;;;23.60;7.03;;;16.80;99.90;;;;;;5080087;28;20042;-47
2021/08/26 09:05:06;;;;;;;20.35;7.28;;;16.80;99.90;;;;;;5079993;28;20051;-47
2021/08/26 09:07:33;;;;;;;18.02;5.82;;;16.70;99.90;;;;;;5087946;28;20051;-46
2021/08/26 09:09:59;;;;;;;20.15;7.45;;;16.70;99.90;;;;;;5088576;28;20111;-49
2021/08/26 09:12:49;;;;;;;26.23;8.38;;;16.60;99.90;;;;;;5071817;28;20028;-47
2021/08/26 09:15:18;;;;;;;21.85;6.22;;;16.60;99.90;;;;;;5073250;28;20031;-47
2021/08/26 09:17:45;;;;;;;21.38;6.90;;;16.50;99.90;;;;;;5071989;28;20087;-49
2021/08/26 09:20:15;;;;;;;23.23;6.57;;;16.50;99.90;;;;;;5067989;28;20421;-46
2021/08/26 09:22:41;;;;;;;26.65;6.70;;;16.40;99.90;;;;;;5073785;28;20315;-47
2021/08/26 09:25:07;;;;;;;26.77;7.45;;;16.50;99.90;;;;;;5088249;28;20032;-48
2021/08/26 09:27:36;;;;;;;28.25;7.90;;;16.60;99.90;;;;;;5087275;28;20055;-47
2021/08/26 09:30:13;;;;;;;21.83;7.22;;;16.80;99.90;;;;;;5087337;28;20073;-46
2021/08/26 09:32:47;;;;;;;24.05;6.60;;;16.90;99.90;;;;;;5088357;28;20073;-47
2021/08/26 09:35:21;;;;;;;20.15;7.32;;;17.10;99.90;;;;;;5059867;28;20032;-49
2021/08/26 09:37:56;;;;;;;28.40;6.85;;;17.10;99.90;;;;;;5068942;28;20024;-47
2021/08/26 09:40:24;;;;;;;16.08;5.78;;;17.00;99.90;;;;;;5081761;28;20112;-48
2021/08/26 09:42:58;;;;;;;28.80;6.85;;;17.10;99.90;;;;;;5063359;28;20103;-48
2021/08/26 09:45:32;;;;;;;17.95;6.40;;;17.20;99.90;;;;;;5053499;28;20028;-47
2021/08/26 09:48:09;;;;;;;15.10;5.95;;;17.20;99.90;;;;;;5050887;28;20075;-47
2021/08/26 09:50:47;;;;;;;22.02;6.68;;;17.30;99.90;;;;;;5055988;28;20033;-46
2021/08/26 09:53:14;;;;;;;14.38;5.88;;;17.30;99.90;;;;;;5058435;28;20271;-48
2021/08/26 09:55:52;;;;;;;21.17;6.43;;;17.50;99.90;;;;;;5056619;28;20021;-47
2021/08/26 09:58:22;;;;;;;14.43;5.28;;;18.00;99.90;;;;;;5051587;28;20360;-47
2021/08/26 10:00:48;;;;;;;22.35;6.32;;;18.60;99.90;;;;;;5046859;28;20032;-49
2021/08/26 10:03:15;;;;;;;16.00;5.05;;;19.30;99.90;;;;;;5055366;28;20016;-47
2021/08/26 10:05:45;;;;;;;19.90;4.72;;;20.10;99.90;;;;;;5078518;28;20319;-50
2021/08/26 10:08:12;;;;;;;14.90;4.57;;;20.40;99.90;;;;;;5086671;28;20032;-47
2021/08/26 10:10:39;;;;;;;10.80;4.47;;;20.60;99.90;;;;;;5087101;28;20532;-47
2021/08/26 10:13:06;;;;;;;16.13;4.78;;;20.70;99.90;;;;;;5087109;28;20078;-47
2021/08/26 10:15:32;;;;;;;11.88;4.47;;;20.90;99.90;;;;;;5076321;28;20025;-47
2021/08/26 10:17:58;;;;;;;11.15;3.90;;;22.20;99.90;;;;;;5084694;28;20150;-47
2021/08/26 10:20:23;;;;;;;12.77;3.80;;;23.10;99.90;;;;;;5079028;28;20128;-47
2021/08/26 10:22:51;;;;;;;13.82;3.88;;;23.50;99.90;;;;;;5084482;28;20036;-47
2021/08/26 10:25:16;;;;;;;14.05;4.57;;;23.90;98.90;;;;;;5086640;28;20115;-47
2021/08/26 10:27:44;;;;;;;10.68;3.70;;;23.50;98.50;;;;;;5086464;28;20119;-47
2021/08/26 10:30:28;;;;;;;14.65;3.70;;;23.10;99.40;;;;;;5086771;28;20039;-47
2021/08/26 10:33:07;;;;;;;15.10;4.30;;;22.30;99.30;;;;;;5086203;28;20089;-48
2021/08/26 10:35:34;;;;;;;14.53;3.63;;;21.70;98.80;;;;;;5085568;28;20508;-47
2021/08/26 10:37:59;;;;;;;14.30;3.80;;;21.10;99.90;;;;;;5085890;28;20286;-47
2021/08/26 10:40:34;;;;;;;11.40;4.18;;;20.90;99.90;;;;;;5068239;28;20047;-48
2021/08/26 10:43:00;;;;;;;7.03;2.95;;;20.70;99.90;;;;;;5085523;28;20305;-47
2021/08/26 10:45:34;;;;;;;15.15;3.78;;;20.30;99.90;;;;;;5086835;28;20020;-47
2021/08/26 10:48:01;;;;;;;10.88;3.30;;;20.10;99.90;;;;;;5070155;28;20036;-46
2021/08/26 10:50:27;;;;;;;13.60;3.67;;;20.10;99.90;;;;;;5081301;28;20070;-47
2021/08/26 10:52:58;;;;;;;9.20;3.15;;;20.10;99.90;;;;;;5085878;28;20550;-46
2021/08/26 10:55:27;;;;;;;;;;;20.20;99.90;;;;;;5088159;28;20024;-47
2021/08/26 10:57:53;;;;;;;11.07;3.03;;;21.50;99.90;;;;;;5072954;28;19907;-48
2021/08/26 11:00:43;;;;;;;10.73;3.20;;;22.50;98.10;;;;;;5080200;28;20516;-49
2021/08/26 11:03:09;;;;;;;8.25;3.03;;;23.00;97.70;;;;;;5084566;28;20484;-49
2021/08/26 11:05:36;;;;;;;11.10;3.22;;;22.90;97.00;;;;;;5069503;28;20075;-47
2021/08/26 11:08:28;;;;;;;7.78;2.47;;;22.50;96.40;;;;;;5077351;28;20021;-46
2021/08/26 11:10:54;;;;;;;6.93;2.90;;;22.90;95.80;;;;;;5064135;28;20512;-47
2021/08/26 11:13:35;;;;;;;7.50;2.78;;;24.10;94.30;;;;;;5055963;28;20044;-47
2021/08/26 11:16:25;;;;;;;12.63;3.38;;;24.70;94.30;;;;;;5050119;28;20440;-47
2021/08/26 11:18:50;;;;;;;;;;;26.30;90.30;;;;;;5057284;28;20029;-48
2021/08/26 11:24:08;;;;;;;8.68;3.38;;;28.10;80.70;;;;;;5056434;28;20384;-47
2021/08/26 11:26:57;;;;;;;15.23;2.95;;;28.30;77.20;;;;;;5054477;28;20040;-48
2021/08/26 11:29:23;;;;;;;7.35;2.67;;;28.70;73.80;;;;;;5057634;28;20044;-47
2021/08/26 11:31:54;;;;;;;7.57;2.45;;;29.30;75.10;;;;;;5056938;28;20067;-47
2021/08/26 11:34:30;;;;;;;8.32;2.45;;;29.90;68.10;;;;;;5056240;28;20381;-47
2021/08/26 11:37:00;;;;;;;9.38;2.40;;;30.10;62.60;;;;;;5056847;28;20021;-47
2021/08/26 11:39:29;;;;;;;4.38;1.75;;;28.80;63.70;;;;;;5060184;28;20024;-50
2021/08/26 11:41:55;;;;;;;3.00;1.42;;;28.40;66.80;;;;;;5068486;28;20089;-48
2021/08/26 11:44:21;;;;;;;6.07;1.40;;;28.80;65.70;;;;;;5060792;28;20028;-47
2021/08/26 11:46:47;;;;;;;2.97;1.25;;;29.20;61.50;;;;;;5057865;28;20023;-43
2021/08/26 11:49:12;;;;;;;2.75;1.38;;;29.30;59.10;;;;;;5060165;28;20095;-43
2021/08/26 11:51:38;;;;;;;6.05;1.38;;;29.50;58.80;;;;;;5058854;28;20594;-43
2021/08/26 11:54:18;;;;;;;4.57;1.65;;;30.00;60.00;;;;;;5061399;28;20033;-43
2021/08/26 11:56:49;;;;;;;2.38;1.25;;;30.40;54.10;;;;;;5067672;28;20047;-44
2021/08/26 11:59:25;;;;;;;2.08;0.90;;;30.60;57.30;;;;;;5059965;28;20342;-43
2021/08/26 12:02:30;;;;;;;2.88;1.17;;;30.20;55.60;;;;;;5054853;28;20437;-43
2021/08/26 12:05:00;;;;;;;3.10;1.30;;;30.40;54.50;;;;;;5059965;28;20166;-43
2021/08/26 12:07:34;;;;;;;4.45;1.30;;;30.30;51.50;;;;;;5057524;28;20109;-46
2021/08/26 12:10:15;;;;;;;2.38;1.08;;;29.90;53.80;;;;;;5059342;28;20378;-44
2021/08/26 12:13:01;;;;;;;6.18;1.20;;;29.80;55.60;;;;;;5061604;28;20024;-43
2021/08/26 12:15:36;;;;;;;1.83;0.90;;;28.80;54.00;;;;;;5058137;28;20036;-42
2021/08/26 12:18:05;;;;;;;4.75;0.90;;;27.70;55.90;;;;;;5057524;28;20060;-43
2021/08/26 12:20:36;;;;;;;7.45;1.33;;;27.20;54.60;;;;;;5058843;28;20020;-44
2021/08/26 12:23:04;;;;;;;4.03;0.88;;;26.90;57.80;;;;;;5057864;28;20434;-42
2021/08/26 12:25:37;;;;;;;2.50;0.77;;;26.80;54.50;;;;;;5059513;28;20103;-42
2021/08/26 12:28:05;;;;;;;1.45;0.82;;;26.90;56.90;;;;;;5064619;28;20274;-44
2021/08/26 12:30:39;;;;;;;9.13;0.90;;;26.90;55.90;;;;;;5057752;28;20029;-43
2021/08/26 12:33:19;;;;;;;4.10;1.30;;;26.40;56.50;;;;;;5055880;28;20021;-45
2021/08/26 12:35:53;;;;;;;2.17;1.00;;;26.10;57.90;;;;;;5057922;28;20021;-42
2021/08/26 12:38:40;;;;;;;4.70;0.80;;;25.90;57.70;;;;;;5050990;28;20064;-44
2021/08/26 12:41:17;;;;;;;3.88;1.02;;;25.60;58.90;;;;;;5062869;28;20496;-43
2021/08/26 12:43:47;;;;;;;1.50;0.82;;;25.70;58.60;;;;;;5067782;28;20020;-45
2021/08/26 12:46:16;;;;;;;4.18;0.65;;;25.60;57.30;;;;;;5060291;28;20043;-44
2021/08/26 12:48:43;;;;;;;2.13;0.80;;;25.60;59.70;;;;;;5059874;28;20025;-43
2021/08/26 12:51:14;;;;;;;2.47;0.90;;;25.40;55.60;;;;;;5062896;28;20029;-43